Time;durP1;ratioP1;P1;durP2;ratioP2;P2;SDS_P1;SDS_P2;PMS_P1;PMS_P2;Temp;Humidity;BMP_temperature;BMP_pressure;BME280_temperature;BME280_humidity;BME280_pressure;Samples;Min_cycle;Max_cycle;Signal;HPM_P1;HPM_P2
2022/05/12 00:02:08;;;;;;;27.87;20.43;;;;;;;13.91;75.50;100195.72;1761933;81;21053;-82
2022/05/12 00:04:34;;;;;;;22.85;20.35;;;;;;;13.91;75.51;100195.72;1762495;81;21042;-81
2022/05/12 00:07:02;;;;;;;22.82;20.43;;;;;;;13.91;75.68;100207.17;1739410;80;21643;-82
2022/05/12 00:09:29;;;;;;;25.20;20.65;;;;;;;13.92;75.72;100216.86;1762339;80;21074;-81
2022/05/12 00:11:56;;;;;;;23.38;19.45;;;;;;;13.94;75.77;100212.45;1755058;80;22232;-82
2022/05/12 00:14:23;;;;;;;28.20;20.35;;;;;;;14.00;75.87;100211.17;1746526;81;21328;-83
2022/05/12 00:16:50;;;;;;;22.90;19.62;;;;;;;14.02;75.82;100206.30;1762190;80;21081;-81
2022/05/12 00:19:17;;;;;;;23.40;20.80;;;;;;;14.02;75.82;100209.85;1762075;80;21314;-81
2022/05/12 00:21:44;;;;;;;23.40;18.85;;;;;;;13.90;75.60;100188.64;1761808;80;21608;-82
2022/05/12 00:24:11;;;;;;;24.70;21.17;;;;;;;13.89;75.62;100202.73;1762012;80;21747;-81
2022/05/12 00:26:38;;;;;;;23.98;20.50;;;;;;;13.83;75.73;100201.41;1762177;81;21054;-81
2022/05/12 00:29:07;;;;;;;24.10;20.75;;;;;;;13.75;75.79;100198.29;1740049;80;21559;-81
2022/05/12 00:31:35;;;;;;;24.52;19.95;;;;;;;13.71;75.92;100204.45;1761755;81;21108;-82
2022/05/12 00:34:05;;;;;;;28.12;21.65;;;;;;;13.70;75.95;100199.16;1762384;80;21883;-81
2022/05/12 00:36:33;;;;;;;31.15;22.00;;;;;;;13.67;76.02;100203.13;1760732;81;22662;-82
2022/05/12 00:39:00;;;;;;;22.73;19.73;;;;;;;13.66;76.10;100214.13;1762038;80;21121;-82
2022/05/12 00:41:27;;;;;;;25.97;20.80;;;;;;;13.63;76.15;100198.27;1762047;80;21089;-82
2022/05/12 00:43:58;;;;;;;24.70;20.12;;;;;;;13.59;76.17;100202.66;1760204;80;22040;-82
2022/05/12 00:46:28;;;;;;;26.82;20.37;;;;;;;13.55;76.22;100193.37;1763328;80;21591;-82
2022/05/12 00:49:00;;;;;;;26.45;20.17;;;;;;;13.50;76.24;100180.14;1773948;80;22696;-82
2022/05/12 00:51:40;;;;;;;24.50;19.70;;;;;;;13.49;76.39;100182.78;1750488;80;21170;-81
2022/05/12 00:54:12;;;;;;;24.85;20.00;;;;;;;13.44;76.38;100188.47;1767078;80;21065;-81
2022/05/12 00:56:39;;;;;;;24.77;20.12;;;;;;;13.35;76.36;100182.28;1761965;80;21348;-82
2022/05/12 00:59:10;;;;;;;23.22;20.43;;;;;;;13.28;76.41;100175.61;1754178;81;21682;-82
2022/05/12 01:01:38;;;;;;;25.88;20.77;;;;;;;13.22;76.46;100165.89;1762647;79;22558;-80
2022/05/12 01:04:05;;;;;;;25.75;21.25;;;;;;;13.16;76.47;100165.87;1768305;80;21063;-83
2022/05/12 01:06:32;;;;;;;25.92;20.90;;;;;;;13.09;76.56;100157.46;1783503;80;21244;-83
2022/05/12 01:08:59;;;;;;;26.95;22.82;;;;;;;13.06;76.68;100163.59;1771793;79;21062;-83
2022/05/12 01:11:26;;;;;;;28.95;22.95;;;;;;;13.01;76.87;100169.31;1737083;81;21085;-82
2022/05/12 01:13:56;;;;;;;28.32;22.93;;;;;;;12.95;76.96;100174.53;1764478;80;21816;-83
2022/05/12 01:16:49;;;;;;;26.52;23.22;;;;;;;12.86;77.05;100181.08;1774736;79;21061;-81
2022/05/12 01:19:26;;;;;;;27.58;23.55;;;;;;;12.78;77.19;100167.41;1742114;80;21070;-82
2022/05/12 01:21:53;;;;;;;28.70;23.22;;;;;;;12.72;77.33;100158.11;1777223;80;21058;-81
2022/05/12 01:24:22;;;;;;;27.10;22.58;;;;;;;12.68;77.47;100162.05;1741942;80;21115;-82
2022/05/12 01:26:49;;;;;;;31.93;23.73;;;;;;;12.64;77.49;100162.46;1766709;80;21758;-81
2022/05/12 01:29:16;;;;;;;24.92;22.10;;;;;;;12.61;77.53;100167.70;1770550;79;21058;-82
2022/05/12 01:31:43;;;;;;;25.55;22.75;;;;;;;12.59;77.62;100165.09;1780959;80;21074;-81
2022/05/12 01:34:10;;;;;;;27.80;23.12;;;;;;;12.58;77.71;100147.91;1778690;80;21066;-81
2022/05/12 01:36:37;;;;;;;24.45;21.93;;;;;;;12.55;77.74;100157.11;1776599;80;21093;-80
2022/05/12 01:39:05;;;;;;;28.87;22.85;;;;;;;12.56;77.94;100170.33;1757634;80;21816;-81
2022/05/12 01:41:33;;;;;;;26.35;22.95;;;;;;;12.58;78.04;100161.98;1776081;80;21125;-82
2022/05/12 01:44:02;;;;;;;25.62;22.90;;;;;;;12.59;78.05;100153.20;1773271;80;21038;-81
2022/05/12 01:46:29;;;;;;;26.48;23.07;;;;;;;12.61;78.02;100161.11;1783324;79;21069;-81
2022/05/12 01:48:56;;;;;;;29.98;22.77;;;;;;;12.61;78.13;100164.66;1799900;79;21105;-82
2022/05/12 01:51:23;;;;;;;27.42;23.05;;;;;;;12.60;78.12;100172.11;1796249;79;21771;-81
2022/05/12 01:53:50;;;;;;;25.48;22.22;;;;;;;12.58;78.07;100160.66;1779908;79;21061;-82
2022/05/12 01:56:17;;;;;;;25.70;22.52;;;;;;;12.55;78.11;100159.30;1790776;79;21081;-81
2022/05/12 01:58:46;;;;;;;36.95;23.50;;;;;;;12.53;78.13;100161.05;1800205;79;21578;-80
2022/05/12 02:01:15;;;;;;;28.47;24.02;;;;;;;12.50;78.09;100146.95;1799533;79;21065;-81
2022/05/12 02:03:41;;;;;;;27.42;23.10;;;;;;;12.47;78.17;100146.50;1775817;79;21762;-80
2022/05/12 02:06:08;;;;;;;32.10;23.70;;;;;;;12.47;78.28;100131.11;1799022;79;21060;-80
2022/05/12 02:08:35;;;;;;;27.20;23.42;;;;;;;12.44;78.36;100146.47;1794647;79;21070;-80
2022/05/12 02:11:02;;;;;;;30.23;24.32;;;;;;;12.46;78.40;100140.76;1767966;79;21061;-80
2022/05/12 02:13:29;;;;;;;28.52;23.80;;;;;;;12.46;78.51;100148.67;1794837;79;21136;-80
2022/05/12 02:15:56;;;;;;;35.90;25.35;;;;;;;12.49;78.66;100149.16;1799774;79;21753;-81
2022/05/12 02:18:24;;;;;;;32.45;24.82;;;;;;;12.50;78.67;100149.17;1777377;79;21069;-82
2022/05/12 02:20:51;;;;;;;29.30;25.08;;;;;;;12.52;78.81;100147.42;1788071;79;21065;-81
2022/05/12 02:23:17;;;;;;;30.72;24.55;;;;;;;12.54;78.95;100155.36;1768420;79;21038;-82
2022/05/12 02:25:44;;;;;;;31.02;27.20;;;;;;;12.59;78.97;100164.17;1768255;79;21065;-81
2022/05/12 02:28:11;;;;;;;34.75;29.25;;;;;;;12.62;78.99;100186.20;1783702;79;21799;-81
2022/05/12 02:30:38;;;;;;;30.48;27.20;;;;;;;12.66;78.96;100177.00;1795858;79;21077;-82
2022/05/12 02:33:05;;;;;;;35.23;29.02;;;;;;;12.68;79.01;100175.25;1785023;79;21706;-81
2022/05/12 02:35:32;;;;;;;32.63;28.50;;;;;;;12.70;78.95;100171.73;1794358;79;21274;-81
2022/05/12 02:37:59;;;;;;;32.73;26.77;;;;;;;12.70;78.84;100161.17;1798946;79;21026;-81
2022/05/12 02:40:28;;;;;;;31.23;27.75;;;;;;;12.71;78.87;100152.84;1800042;79;21763;-83
2022/05/12 02:42:57;;;;;;;30.57;26.97;;;;;;;12.71;78.79;100148.44;1768479;80;21034;-80
2022/05/12 02:45:24;;;;;;;35.40;27.93;;;;;;;12.73;78.82;100137.89;1791073;79;21104;-82
2022/05/12 02:47:52;;;;;;;32.80;28.60;;;;;;;12.72;78.81;100127.73;1756888;80;21149;-81
2022/05/12 02:50:19;;;;;;;30.30;27.00;;;;;;;12.73;78.78;100116.77;1758799;80;21127;-82
2022/05/12 02:52:45;;;;;;;32.58;26.93;;;;;;;12.73;78.79;100116.77;1770630;80;21790;-82
2022/05/12 02:55:12;;;;;;;31.93;26.35;;;;;;;12.77;78.82;100111.94;1782817;79;21683;-81
2022/05/12 02:57:39;;;;;;;29.85;26.02;;;;;;;12.80;78.79;100107.56;1783270;80;21065;-82
2022/05/12 03:00:09;;;;;;;32.28;27.13;;;;;;;12.84;78.81;100110.66;1770810;80;21082;-83
2022/05/12 03:02:36;;;;;;;30.35;26.85;;;;;;;12.87;78.79;100103.17;1784477;80;21074;-82
2022/05/12 03:05:06;;;;;;;35.43;26.70;;;;;;;12.90;78.79;100092.64;1780813;80;21770;-83
2022/05/12 03:07:36;;;;;;;32.58;26.90;;;;;;;12.95;78.76;100085.63;1774296;80;21073;-82
2022/05/12 03:10:03;;;;;;;29.63;26.40;;;;;;;12.97;78.60;100069.76;1771320;80;21587;-82
2022/05/12 03:12:31;;;;;;;29.32;26.12;;;;;;;13.02;78.67;100075.95;1784351;80;21085;-82
2022/05/12 03:15:00;;;;;;;30.30;27.00;;;;;;;13.06;78.73;100079.05;1756230;80;21148;-82
2022/05/12 03:17:27;;;;;;;28.55;24.43;;;;;;;13.09;78.65;100078.20;1784063;80;21773;-83
2022/05/12 03:19:54;;;;;;;29.02;26.02;;;;;;;13.10;78.60;100079.94;1771408;80;21088;-81
2022/05/12 03:22:20;;;;;;;29.85;26.50;;;;;;;13.12;78.48;100078.19;1779272;80;21108;-81
2022/05/12 03:24:47;;;;;;;28.10;24.95;;;;;;;13.12;78.45;100100.23;1765821;79;21058;-80
2022/05/12 03:27:14;;;;;;;27.98;24.85;;;;;;;13.12;78.41;100079.09;1778556;80;21059;-81
2022/05/12 03:29:41;;;;;;;28.62;25.62;;;;;;;13.14;78.56;100094.95;1765341;80;21749;-81
2022/05/12 03:32:12;;;;;;;27.90;24.82;;;;;;;13.16;78.42;100093.20;1774596;80;21574;-81
2022/05/12 03:34:40;;;;;;;35.23;26.75;;;;;;;13.15;78.33;100094.94;1779878;80;21054;-82
2022/05/12 03:37:08;;;;;;;29.80;26.52;;;;;;;13.17;78.43;100103.75;1775675;79;21077;-82
2022/05/12 03:39:38;;;;;;;29.92;26.23;;;;;;;13.19;78.47;100116.98;1771582;80;21078;-82
2022/05/12 03:42:12;;;;;;;31.07;25.45;;;;;;;13.21;78.41;100102.91;1752609;80;21787;-82
2022/05/12 03:44:47;;;;;;;29.00;25.17;;;;;;;13.25;78.44;100114.80;1759495;80;21097;-81
2022/05/12 03:47:19;;;;;;;31.68;25.32;;;;;;;13.25;78.33;100075.16;1774263;80;21065;-81
2022/05/12 03:49:52;;;;;;;28.95;25.92;;;;;;;13.27;78.47;100102.05;1750181;80;21052;-81
2022/05/12 03:52:19;;;;;;;31.12;25.68;;;;;;;13.29;78.42;100078.24;1760445;80;21071;-83
2022/05/12 03:54:45;;;;;;;29.77;26.70;;;;;;;13.30;78.41;100099.84;1773279;79;21762;-81
2022/05/12 03:57:12;;;;;;;26.57;23.77;;;;;;;13.31;78.40;100106.95;1771388;80;21163;-81
2022/05/12 03:59:39;;;;;;;31.48;26.65;;;;;;;13.31;78.40;100082.71;1767022;79;21049;-81
2022/05/12 04:02:07;;;;;;;32.58;25.90;;;;;;;13.30;78.43;100095.88;1773899;80;21142;-82
2022/05/12 04:04:37;;;;;;;29.05;25.80;;;;;;;13.32;78.50;100074.33;1781237;79;21121;-83
2022/05/12 04:07:05;;;;;;;30.57;26.27;;;;;;;13.35;78.62;100059.37;1775525;80;22588;-82
2022/05/12 04:09:31;;;;;;;29.67;25.68;;;;;;;13.40;78.64;100054.98;1773301;79;21130;-78
2022/05/12 04:11:58;;;;;;;30.75;26.27;;;;;;;13.43;78.68;100069.95;1771956;80;21618;-81
2022/05/12 04:14:25;;;;;;;31.52;26.52;;;;;;;13.41;78.58;100067.75;1770701;80;21102;-83
2022/05/12 04:16:52;;;;;;;28.17;24.50;;;;;;;13.44;78.65;100060.25;1769060;79;21552;-81
2022/05/12 04:19:19;;;;;;;31.82;27.00;;;;;;;13.47;78.80;100090.23;1773014;80;21809;-82
2022/05/12 04:21:45;;;;;;;33.05;25.65;;;;;;;13.50;78.63;100089.38;1768636;80;21132;-80
2022/05/12 04:24:12;;;;;;;32.65;24.87;;;;;;;13.51;78.73;100110.95;1767431;80;21057;-81
2022/05/12 04:26:39;;;;;;;30.48;25.32;;;;;;;13.53;78.72;100122.41;1777891;80;21065;-83
2022/05/12 04:29:07;;;;;;;27.98;24.05;;;;;;;13.55;78.69;100121.97;1766727;80;21100;-83
2022/05/12 04:31:34;;;;;;;30.30;24.63;;;;;;;13.57;78.74;100109.64;1769616;80;21759;-78
2022/05/12 04:36:46;;;;;;;29.20;24.32;;;;;;;13.64;78.84;100127.73;1761666;80;21090;-81
2022/05/12 04:39:13;;;;;;;26.87;23.45;;;;;;;13.60;78.62;100120.23;1775737;79;21077;-80
2022/05/12 04:41:40;;;;;;;29.85;23.60;;;;;;;13.59;78.80;100121.13;1759471;79;21065;-87
2022/05/12 04:44:13;;;;;;;27.05;24.18;;;;;;;13.62;78.82;100111.86;1751309;80;21752;-89
2022/05/12 04:46:41;;;;;;;28.62;23.38;;;;;;;13.64;78.84;100091.59;1770684;80;21098;-91
2022/05/12 04:49:09;;;;;;;26.75;23.30;;;;;;;13.65;78.88;100090.73;1757614;80;21551;-81
2022/05/12 04:51:37;;;;;;;25.12;22.55;;;;;;;13.67;78.92;100090.73;1756534;80;21067;-80
2022/05/12 04:54:09;;;;;;;28.32;23.95;;;;;;;13.70;78.92;100082.78;1751311;80;21094;-81
2022/05/12 04:56:33;;;;;;;28.52;23.30;;;;;;;13.72;78.91;100071.77;1757701;80;21770;-82
2022/05/12 04:59:00;;;;;;;29.87;23.70;;;;;;;13.74;78.92;100061.65;1753487;80;21122;-80
2022/05/12 05:01:27;;;;;;;28.47;25.32;;;;;;;13.78;79.03;100071.34;1759610;80;21329;-80
2022/05/12 05:03:54;;;;;;;30.20;26.33;;;;;;;13.84;79.01;100059.02;1757296;80;21105;-80
2022/05/12 05:06:21;;;;;;;29.30;26.10;;;;;;;13.84;78.99;100023.30;1752884;80;21091;-80
2022/05/12 05:08:47;;;;;;;30.37;25.70;;;;;;;13.86;79.00;100003.89;1755310;80;21780;-81
2022/05/12 05:11:14;;;;;;;28.57;25.10;;;;;;;13.93;79.06;100009.63;1759716;80;21051;-81
2022/05/12 05:13:41;;;;;;;28.05;24.72;;;;;;;14.00;79.14;100025.03;1762644;80;21127;-80
2022/05/12 05:16:13;;;;;;;28.52;24.18;;;;;;;14.14;79.20;100043.56;1758662;80;21099;-83
2022/05/12 05:18:39;;;;;;;28.07;23.85;;;;;;;14.28;79.25;100064.72;1756328;80;21743;-83
2022/05/12 05:21:07;;;;;;;28.00;23.07;;;;;;;14.42;79.07;100054.13;1759227;80;22542;-83
2022/05/12 05:23:35;;;;;;;28.17;23.18;;;;;;;14.60;79.20;100043.95;1763666;80;21077;-84
2022/05/12 05:26:02;;;;;;;25.75;23.10;;;;;;;14.83;79.19;100048.75;1748368;80;21740;-82
2022/05/12 05:28:29;;;;;;;30.08;23.38;;;;;;;15.18;79.47;100060.95;1729317;80;21807;-84
2022/05/12 05:30:56;;;;;;;26.33;22.45;;;;;;;15.48;79.04;100070.50;1815008;77;21049;-84
2022/05/12 05:33:22;;;;;;;26.27;22.48;;;;;;;15.62;78.45;100078.39;1830035;77;21745;-83
2022/05/12 05:35:49;;;;;;;26.10;21.62;;;;;;;15.69;78.10;100084.09;1833030;77;21026;-83
2022/05/12 05:38:18;;;;;;;26.62;23.57;;;;;;;15.76;77.89;100086.73;1818801;77;21543;-83
2022/05/12 05:40:44;;;;;;;26.60;22.30;;;;;;;15.82;77.70;100101.28;1826075;77;21137;-82
2022/05/12 05:43:11;;;;;;;24.60;22.07;;;;;;;15.94;77.74;100103.41;1826532;77;21102;-81
2022/05/12 05:45:38;;;;;;;24.45;21.85;;;;;;;16.02;77.50;100103.34;1832306;77;21729;-81
2022/05/12 05:48:06;;;;;;;25.25;22.45;;;;;;;16.06;77.33;100093.58;1842024;76;21113;-82
2022/05/12 05:53:25;;;;;;;26.37;21.23;;;;;;;16.01;77.04;100080.78;1815665;77;21046;-82
2022/05/12 05:55:54;;;;;;;25.02;21.90;;;;;;;15.98;77.07;100091.45;1841785;77;20999;-80
2022/05/12 05:58:21;;;;;;;24.02;21.52;;;;;;;15.98;77.03;100090.12;1830184;77;22959;-82
2022/05/12 06:00:48;;;;;;;28.75;22.02;;;;;;;16.07;77.24;100100.67;1804925;77;21038;-82
2022/05/12 06:03:15;;;;;;;23.20;20.92;;;;;;;16.22;77.33;100108.50;1820004;77;21070;-81
2022/05/12 06:05:42;;;;;;;23.67;20.77;;;;;;;16.39;77.00;100108.36;1827460;77;21143;-82
2022/05/12 06:08:10;;;;;;;31.55;23.45;;;;;;;16.52;76.74;100113.11;1816947;77;21046;-81
2022/05/12 06:10:38;;;;;;;26.33;23.38;;;;;;;16.50;76.25;100126.86;1825213;77;21693;-81
2022/05/12 06:13:05;;;;;;;27.87;24.85;;;;;;;16.31;75.58;100136.31;1821126;77;21027;-83
2022/05/12 06:15:34;;;;;;;37.55;25.15;;;;;;;15.90;75.37;100126.88;1819197;77;21663;-81
2022/05/12 06:18:06;;;;;;;31.68;25.77;;;;;;;15.72;75.85;100122.98;1814082;77;21094;-81
2022/05/12 06:20:37;;;;;;;29.05;26.15;;;;;;;15.50;75.67;100152.72;1824560;77;21070;-80
2022/05/12 06:23:04;;;;;;;31.20;27.45;;;;;;;15.35;75.96;100161.20;1817322;77;21844;-81
2022/05/12 06:25:30;;;;;;;28.27;24.82;;;;;;;15.21;75.91;100166.98;1840235;77;21066;-80
2022/05/12 06:27:57;;;;;;;32.40;23.73;;;;;;;15.07;76.11;100162.16;1835389;77;21062;-81
2022/05/12 06:30:24;;;;;;;29.70;25.88;;;;;;;14.98;76.44;100168.39;1812375;77;21079;-81
2022/05/12 06:32:55;;;;;;;31.62;28.32;;;;;;;14.92;76.70;100150.73;1812403;77;21124;-82
2022/05/12 06:35:20;;;;;;;35.95;28.38;;;;;;;14.89;76.87;100178.55;1810980;77;21789;-81
2022/05/12 06:37:47;;;;;;;34.80;27.35;;;;;;;14.93;77.06;100186.93;1826811;77;21141;-81
2022/05/12 06:40:17;;;;;;;37.58;28.77;;;;;;;14.95;76.94;100192.23;1823488;77;21590;-80
2022/05/12 06:42:44;;;;;;;36.50;29.63;;;;;;;14.93;76.87;100196.66;1828570;77;21090;-81
2022/05/12 06:45:16;;;;;;;32.00;28.60;;;;;;;14.84;76.84;100205.49;1815257;77;21114;-81
2022/05/12 06:47:48;;;;;;;35.98;30.20;;;;;;;14.84;77.05;100194.89;1818895;77;22602;-81
2022/05/12 06:50:19;;;;;;;32.95;28.92;;;;;;;14.77;76.89;100200.66;1815044;77;21537;-82
2022/05/12 06:52:47;;;;;;;36.77;30.08;;;;;;;14.69;77.19;100206.38;1819577;77;21069;-80
2022/05/12 06:55:17;;;;;;;32.55;28.87;;;;;;;14.67;77.42;100213.91;1815003;77;21046;-81
2022/05/12 06:57:46;;;;;;;39.65;34.50;;;;;;;14.72;77.67;100222.74;1828390;77;21070;-81
2022/05/12 07:00:16;;;;;;;32.90;29.18;;;;;;;14.69;77.70;100250.09;1838421;77;21807;-81
2022/05/12 07:02:44;;;;;;;21.20;15.23;;;;;;;14.73;77.38;100254.53;1828242;77;21047;-80
2022/05/12 07:05:17;;;;;;;18.85;13.85;;;;;;;14.99;76.39;100270.84;1842795;77;21066;-80
2022/05/12 07:07:44;;;;;;;17.37;12.13;;;;;;;15.27;75.58;100273.02;1829947;77;21097;-80
2022/05/12 07:10:11;;;;;;;17.02;12.18;;;;;;;15.48;74.42;100261.92;1818014;77;21122;-81
2022/05/12 07:12:38;;;;;;;16.12;11.68;;;;;;;15.66;74.02;100264.52;1827594;77;23103;-80
2022/05/12 07:15:05;;;;;;;14.80;11.03;;;;;;;15.84;73.24;100275.97;1822354;77;21031;-81
2022/05/12 07:17:37;;;;;;;10.13;9.00;;;;;;;15.95;72.81;100288.75;1818473;77;21570;-81
2022/05/12 07:28:17;;;;;;;8.73;7.35;;;;;;;15.85;70.97;100349.41;1834350;77;21072;-80
2022/05/12 07:31:01;;;;;;;12.03;7.05;;;;;;;15.82;70.67;100360.02;1830589;77;21073;-79
2022/05/12 07:33:30;;;;;;;9.95;5.90;;;;;;;15.80;70.63;100365.33;1812455;77;21113;-81
2022/05/12 07:35:58;;;;;;;7.70;4.12;;;;;;;15.79;70.06;100391.44;1825013;77;21066;-81
2022/05/12 07:38:25;;;;;;;9.85;4.15;;;;;;;15.61;69.65;100399.39;1832377;77;21750;-81
2022/05/12 07:40:53;;;;;;;8.95;4.62;;;;;;;15.31;69.23;100405.16;1823596;77;21078;-81
2022/05/12 07:43:20;;;;;;;10.70;6.85;;;;;;;15.32;69.76;100407.81;1822649;77;21023;-81
2022/05/12 07:45:48;;;;;;;8.03;3.85;;;;;;;15.64;69.87;100416.65;1824195;77;21085;-81
2022/05/12 07:48:15;;;;;;;6.42;3.70;;;;;;;15.84;69.49;100417.95;1826348;77;21337;-81
2022/05/12 07:50:42;;;;;;;4.17;2.67;;;;;;;16.16;69.59;100419.23;1816693;77;21788;-81
2022/05/12 07:53:09;;;;;;;5.30;3.00;;;;;;;16.39;68.78;100420.46;1836579;77;21054;-81
2022/05/12 07:55:36;;;;;;;3.85;2.67;;;;;;;16.41;68.07;100423.99;1817056;77;21755;-81
2022/05/12 07:58:04;;;;;;;3.35;1.75;;;;;;;16.58;67.95;100415.94;1829366;77;21552;-81
2022/05/12 08:00:32;;;;;;;4.62;3.45;;;;;;;16.74;67.31;100409.21;1816139;77;21085;-80
2022/05/12 08:02:59;;;;;;;4.67;2.10;;;;;;;16.79;66.53;100414.94;1826168;77;22644;-80
2022/05/12 08:05:26;;;;;;;3.75;2.80;;;;;;;16.61;66.69;100415.03;1833121;77;21051;-80
2022/05/12 08:07:54;;;;;;;4.72;2.00;;;;;;;16.43;66.57;100413.37;1839912;77;21061;-80
2022/05/12 08:10:24;;;;;;;3.12;2.00;;;;;;;16.32;66.87;100419.59;1818935;77;21524;-80
2022/05/12 08:12:50;;;;;;;4.30;2.00;;;;;;;16.22;66.87;100432.48;1818265;77;21117;-80
2022/05/12 08:15:18;;;;;;;4.53;1.72;;;;;;;16.13;66.87;100420.10;1827768;77;21718;-82
2022/05/12 08:17:45;;;;;;;2.50;1.70;;;;;;;16.04;66.53;100427.22;1812059;77;22132;-81
2022/05/12 08:20:11;;;;;;;3.72;2.00;;;;;;;15.89;66.52;100446.26;1817029;77;21097;-80
2022/05/12 08:22:38;;;;;;;5.58;1.60;;;;;;;15.80;66.60;100456.02;1830897;77;21062;-80
2022/05/12 08:25:08;;;;;;;9.45;4.85;;;;;;;15.86;66.91;100481.20;1841711;77;21552;-80
2022/05/12 08:27:35;;;;;;;8.35;6.72;;;;;;;16.06;67.06;100470.57;1842850;77;22622;-79
2022/05/12 08:30:02;;;;;;;5.47;1.70;;;;;;;16.27;66.29;100482.48;1814719;77;21033;-79
2022/05/12 08:32:29;;;;;;;2.58;2.30;;;;;;;16.43;65.89;100487.75;1826173;77;21644;-80
2022/05/12 08:34:56;;;;;;;3.55;1.55;;;;;;;16.62;65.08;100488.56;1815469;77;21576;-80
2022/05/12 08:37:22;;;;;;;7.47;2.10;;;;;;;16.86;64.50;100512.41;1823754;77;21083;-80
2022/05/12 08:39:52;;;;;;;1.02;0.90;;;;;;;17.19;64.35;100509.56;1806954;77;21806;-81
2022/05/12 08:42:26;;;;;;;3.17;1.60;;;;;;;17.36;63.13;100528.98;1813220;77;21133;-80
2022/05/12 08:44:53;;;;;;;3.95;1.47;;;;;;;17.34;62.89;100536.52;1837090;77;21446;-80
2022/05/12 08:47:27;;;;;;;6.22;1.00;;;;;;;17.47;63.05;100544.44;1824807;77;21792;-80
2022/05/12 08:49:54;;;;;;;1.32;0.82;;;;;;;17.59;62.60;100546.13;1826410;77;21073;-80
2022/05/12 08:52:50;;;;;;;2.65;0.90;;;;;;;17.78;62.30;100560.17;1828398;77;21838;-82
2022/05/12 08:55:28;;;;;;;3.45;1.00;;;;;;;17.91;61.21;100567.66;1833214;77;21102;-80
2022/05/12 08:58:13;;;;;;;0.70;0.70;;;;;;;17.80;60.51;100572.15;1833244;77;21082;-80
2022/05/12 09:01:04;;;;;;;1.10;0.72;;;;;;;17.79;60.22;100567.28;1814814;77;21048;-80
2022/05/12 09:03:59;;;;;;;3.17;1.67;;;;;;;17.66;60.49;100561.16;1819813;77;21082;-81
2022/05/12 09:06:40;;;;;;;2.20;1.50;;;;;;;17.71;60.84;100575.75;1818078;77;21802;-81
2022/05/12 09:09:19;;;;;;;4.00;1.45;;;;;;;18.02;60.53;100576.90;1821182;77;21032;-82
2022/05/12 09:12:06;;;;;;;2.35;1.42;;;;;;;18.24;60.17;100587.80;1812467;78;20995;-80
2022/05/12 09:14:38;;;;;;;0.45;0.45;;;;;;;18.23;59.81;100597.13;1812653;78;21020;-81
2022/05/12 09:17:05;;;;;;;5.72;1.00;;;;;;;18.26;59.52;100601.08;1807175;77;21133;-81
2022/05/12 09:19:32;;;;;;;2.85;0.93;;;;;;;18.37;59.58;100604.52;1815366;77;21365;-80
2022/05/12 09:21:59;;;;;;;0.70;0.45;;;;;;;18.53;59.31;100606.61;1844304;77;21047;-80
2022/05/12 09:24:26;;;;;;;1.10;0.78;;;;;;;18.72;59.18;100616.63;1820889;77;21077;-81
2022/05/12 09:27:11;;;;;;;3.15;0.82;;;;;;;19.05;58.85;100626.53;1828168;77;21069;-81
2022/05/12 09:29:49;;;;;;;6.83;2.58;;;;;;;19.25;57.58;100628.06;1839401;77;21670;-81
2022/05/12 09:32:24;;;;;;;2.33;1.45;;;;;;;19.39;57.72;100630.11;1843289;77;21607;-81
2022/05/12 09:35:24;;;;;;;2.55;0.75;;;;;;;19.53;56.83;100638.80;1847634;77;21058;-81
2022/05/12 09:37:51;;;;;;;5.87;1.42;;;;;;;19.64;57.12;100650.67;1809452;77;21061;-79
2022/05/12 09:40:36;;;;;;;2.15;1.42;;;;;;;19.70;56.34;100652.38;1844632;77;21608;-82
2022/05/12 09:43:32;;;;;;;1.55;0.90;;;;;;;19.73;55.97;100678.62;1840220;77;21082;-81
2022/05/12 09:46:20;;;;;;;2.77;0.72;;;;;;;19.78;55.90;100679.88;1838844;77;22398;-81
2022/05/12 09:48:48;;;;;;;1.15;1.02;;;;;;;19.89;55.01;100685.07;1838794;77;21042;-81
2022/05/12 09:51:32;;;;;;;1.25;0.90;;;;;;;19.73;54.21;100689.76;1783686;77;21195;-82
2022/05/12 09:54:26;;;;;;;0.65;0.50;;;;;;;19.68;53.90;100688.90;1840377;77;21994;-81
2022/05/12 09:57:00;;;;;;;4.60;0.55;;;;;;;19.76;53.97;100693.27;1819445;77;21273;-80
2022/05/12 09:59:29;;;;;;;1.32;0.57;;;;;;;20.00;54.05;100691.14;1844503;77;21753;-80
2022/05/12 10:02:06;;;;;;;1.27;0.50;;;;;;;20.28;53.77;100716.98;1845236;77;21532;-80
2022/05/12 10:10:23;;;;;;;6.78;3.45;;;;;;;20.21;52.41;100712.64;1840371;77;21065;-80
2022/05/12 10:12:58;;;;;;;1.22;1.07;;;;;;;20.22;52.11;100721.56;1824381;77;21745;-80
2022/05/12 10:15:38;;;;;;;1.67;1.10;;;;;;;20.03;52.02;100731.19;1839139;77;21108;-81
2022/05/12 10:18:19;;;;;;;3.80;1.55;;;;;;;19.98;52.17;100729.89;1843881;77;21081;-81
2022/05/12 10:20:50;;;;;;;6.62;1.15;;;;;;;20.16;52.04;100747.92;1843161;77;21065;-81
2022/05/12 10:23:36;;;;;;;4.87;1.60;;;;;;;20.04;50.28;100750.77;1820736;77;21070;-81
2022/05/12 10:26:14;;;;;;;3.47;1.55;;;;;;;19.67;50.03;100748.53;1786147;77;22063;-81
2022/05/12 10:29:02;;;;;;;2.30;0.75;;;;;;;19.42;50.41;100755.05;1828993;78;21525;-80
2022/05/12 10:31:56;;;;;;;2.67;0.90;;;;;;;19.39;50.23;100760.44;1845205;77;21654;-80
2022/05/12 10:34:45;;;;;;;4.30;1.40;;;;;;;19.36;50.04;100772.94;1844488;77;21058;-82
2022/05/12 10:37:33;;;;;;;3.90;1.67;;;;;;;19.55;50.43;100778.48;1824513;77;21490;-81
2022/05/12 10:40:17;;;;;;;4.40;1.65;;;;;;;19.74;50.05;100787.66;1817584;77;21819;-80
2022/05/12 10:43:09;;;;;;;2.08;1.02;;;;;;;19.90;49.65;100808.39;1833596;77;21406;-81
2022/05/12 10:45:53;;;;;;;3.70;1.27;;;;;;;19.88;48.69;100805.73;1834259;78;21034;-81
2022/05/12 10:49:10;;;;;;;1.72;1.12;;;;;;;19.77;48.59;100799.19;1833056;77;21242;-81
2022/05/12 10:52:05;;;;;;;3.65;1.10;;;;;;;19.68;48.25;100809.94;1776956;78;21105;-80
2022/05/12 10:54:40;;;;;;;6.80;1.15;;;;;;;19.65;49.04;100803.29;1806647;78;21202;-82
2022/05/12 10:57:44;;;;;;;1.92;1.42;;;;;;;19.99;48.81;100809.62;1795088;78;21044;-81
2022/05/12 11:00:30;;;;;;;;;;;;;;;19.96;47.42;100804.30;1803743;78;21102;-82
2022/05/12 11:03:14;;;;;;;3.95;1.40;;;;;;;19.75;47.25;100808.12;1761483;79;20233;-82
2022/05/12 11:05:45;;;;;;;2.72;1.27;;;;;;;19.47;47.13;100811.08;1774259;77;21088;-81
2022/05/12 11:08:23;;;;;;;2.62;1.52;;;;;;;19.13;47.44;100806.53;1778022;79;21749;-81
2022/05/12 11:10:54;;;;;;;2.30;1.30;;;;;;;19.09;47.75;100820.77;1806169;78;21055;-81
2022/05/12 11:13:32;;;;;;;2.25;1.20;;;;;;;19.26;47.96;100822.86;1782591;79;21087;-81
2022/05/12 11:16:04;;;;;;;6.92;1.22;;;;;;;19.48;47.33;100832.84;1795560;77;21050;-82
2022/05/12 11:19:09;;;;;;;4.33;1.30;;;;;;;19.46;45.80;100827.98;1803936;78;21023;-80
2022/05/12 11:21:52;;;;;;;2.52;0.85;;;;;;;19.47;46.53;100816.87;1772138;79;21740;-81
2022/05/12 11:24:49;;;;;;;9.08;1.17;;;;;;;19.62;45.84;100826.92;1768758;78;21469;-81
2022/05/12 11:27:44;;;;;;;7.15;1.50;;;;;;;19.61;44.95;100838.94;1805839;79;21070;-80
2022/05/12 11:30:36;;;;;;;14.78;2.42;;;;;;;19.52;45.14;100847.05;1791442;79;22116;-81
2022/05/12 11:33:26;;;;;;;8.88;1.30;;;;;;;19.30;44.76;100853.08;1795868;78;21114;-81
2022/05/12 11:35:54;;;;;;;2.22;1.05;;;;;;;18.95;44.49;100859.12;1772534;79;22473;-80
2022/05/12 11:38:47;;;;;;;7.67;1.02;;;;;;;18.67;44.53;100850.86;1775888;77;21063;-81
2022/05/12 11:41:34;;;;;;;3.77;1.07;;;;;;;18.51;44.70;100840.77;1782122;78;21194;-80
2022/05/12 11:44:34;;;;;;;4.90;1.10;;;;;;;18.28;44.25;100858.19;1805227;78;21114;-80
2022/05/12 11:47:33;;;;;;;4.55;1.12;;;;;;;18.15;44.73;100860.02;1730199;82;21078;-82
2022/05/12 11:50:26;;;;;;;4.53;1.10;;;;;;;18.10;45.11;100861.39;1801557;77;21793;-80
2022/05/12 11:53:03;;;;;;;7.00;1.27;;;;;;;18.22;45.18;100869.77;1784146;79;21066;-80
2022/05/12 11:55:37;;;;;;;2.25;1.20;;;;;;;18.37;44.76;100863.02;1785286;79;21102;-80